Peshastin, Washington
Current Conditions -  °F | °C
As of 7:55 AM on Thursday 23 Oct 2014 (Local Time) from KEAT Reporting Station
Light Rain Light Rain  
Wind Chill: 49°   Ceiling: 6000
Heat Index: 49°   Visibility: 10mi
Dew Point: 44°   Wind: 3mph
Humidity: 83%   Direction: 80°E
Pressure: 29.74"   Gusts: NA
Location:  47.57°N, 120.61°W
Report Text: KEAT 231455Z AUTO 08003KT 10SM -RA BKN060 BKN080 OVC090 09/07 A2974 RMK AO2 RAE01B24 SLP073 P0001 60002 T00940067 50008
Loading
Personal Weather Stations






























Interactive Weather Map
Tropical Storm Tracking
New forecast layout! Learn more

10-Day Weather Forecast

Advertisements
Track Severe Weather on mobile